sensor_id;sensor_type;location;lat;lon;timestamp;pressure;altitude;pressure_sealevel;temperature;humidity
36138;BME280;67787;50.074;21.904;2024-02-15T00:00:52;99735.70;;;0.91;65.20
36138;BME280;67787;50.074;21.904;2024-02-15T00:03:37;99728.59;;;0.96;65.42
36138;BME280;67787;50.074;21.904;2024-02-15T00:06:05;99725.89;;;1.00;65.29
36138;BME280;67787;50.074;21.904;2024-02-15T00:08:33;99724.84;;;1.00;65.22
36138;BME280;67787;50.074;21.904;2024-02-15T00:11:01;99728.45;;;0.95;65.12
36138;BME280;67787;50.074;21.904;2024-02-15T00:13:29;99726.44;;;0.91;65.14
36138;BME280;67787;50.074;21.904;2024-02-15T00:15:58;99730.06;;;0.93;65.29
36138;BME280;67787;50.074;21.904;2024-02-15T00:18:26;99730.77;;;0.93;65.44
36138;BME280;67787;50.074;21.904;2024-02-15T00:20:54;99731.83;;;0.92;65.47
36138;BME280;67787;50.074;21.904;2024-02-15T00:23:22;99734.09;;;0.92;65.39
36138;BME280;67787;50.074;21.904;2024-02-15T00:25:50;99740.23;;;0.91;65.28
36138;BME280;67787;50.074;21.904;2024-02-15T00:28:18;99735.96;;;0.86;65.39
36138;BME280;67787;50.074;21.904;2024-02-15T00:30:46;99740.00;;;0.85;65.68
36138;BME280;67787;50.074;21.904;2024-02-15T00:33:14;99744.96;;;0.90;65.65
36138;BME280;67787;50.074;21.904;2024-02-15T00:35:42;99742.95;;;0.94;65.66
36138;BME280;67787;50.074;21.904;2024-02-15T00:38:10;99740.25;;;0.99;65.65
36138;BME280;67787;50.074;21.904;2024-02-15T00:40:38;99742.98;;;1.00;65.80
36138;BME280;67787;50.074;21.904;2024-02-15T00:43:07;99739.09;;;1.02;65.67
36138;BME280;67787;50.074;21.904;2024-02-15T00:45:35;99738.70;;;1.04;65.85
36138;BME280;67787;50.074;21.904;2024-02-15T00:48:03;99738.14;;;1.07;65.60
36138;BME280;67787;50.074;21.904;2024-02-15T00:50:34;99737.56;;;1.08;65.64
36138;BME280;67787;50.074;21.904;2024-02-15T00:53:02;99738.51;;;1.06;65.65
36138;BME280;67787;50.074;21.904;2024-02-15T00:55:31;99737.52;;;1.03;65.66
36138;BME280;67787;50.074;21.904;2024-02-15T00:57:59;99736.23;;;1.06;66.03
36138;BME280;67787;50.074;21.904;2024-02-15T01:00:28;99734.62;;;1.07;65.82
36138;BME280;67787;50.074;21.904;2024-02-15T01:02:56;99729.02;;;1.08;65.69
36138;BME280;67787;50.074;21.904;2024-02-15T01:05:24;99725.10;;;1.12;65.96
36138;BME280;67787;50.074;21.904;2024-02-15T01:07:51;99731.48;;;1.14;65.60
36138;BME280;67787;50.074;21.904;2024-02-15T01:10:19;99733.42;;;1.14;65.94
36138;BME280;67787;50.074;21.904;2024-02-15T01:12:47;99734.34;;;1.12;65.82
36138;BME280;67787;50.074;21.904;2024-02-15T01:15:16;99731.27;;;1.09;66.23
36138;BME280;67787;50.074;21.904;2024-02-15T01:17:46;99736.34;;;1.08;66.00
36138;BME280;67787;50.074;21.904;2024-02-15T01:20:14;99739.86;;;1.07;65.88
36138;BME280;67787;50.074;21.904;2024-02-15T01:22:43;99738.29;;;1.07;66.07
36138;BME280;67787;50.074;21.904;2024-02-15T01:25:12;99736.88;;;1.08;65.88
36138;BME280;67787;50.074;21.904;2024-02-15T01:27:40;99734.80;;;1.08;66.01
36138;BME280;67787;50.074;21.904;2024-02-15T01:30:08;99735.32;;;1.08;66.16
36138;BME280;67787;50.074;21.904;2024-02-15T01:32:36;99733.73;;;1.08;66.06
36138;BME280;67787;50.074;21.904;2024-02-15T01:35:04;99736.16;;;1.09;66.21
36138;BME280;67787;50.074;21.904;2024-02-15T01:37:32;99733.27;;;1.06;66.14
36138;BME280;67787;50.074;21.904;2024-02-15T01:40:00;99735.36;;;1.05;65.86
36138;BME280;67787;50.074;21.904;2024-02-15T01:42:28;99733.95;;;1.07;66.11
36138;BME280;67787;50.074;21.904;2024-02-15T01:44:56;99733.39;;;1.08;66.25
36138;BME280;67787;50.074;21.904;2024-02-15T01:47:24;99736.05;;;1.06;66.46
36138;BME280;67787;50.074;21.904;2024-02-15T01:49:52;99734.85;;;1.05;66.16
36138;BME280;67787;50.074;21.904;2024-02-15T01:52:20;99730.95;;;1.00;66.14
36138;BME280;67787;50.074;21.904;2024-02-15T01:54:51;99731.75;;;0.95;66.42
36138;BME280;67787;50.074;21.904;2024-02-15T01:57:20;99730.04;;;0.95;66.24
36138;BME280;67787;50.074;21.904;2024-02-15T01:59:51;99724.92;;;0.96;66.46
36138;BME280;67787;50.074;21.904;2024-02-15T02:02:22;99719.87;;;0.96;66.18
36138;BME280;67787;50.074;21.904;2024-02-15T02:04:52;99715.55;;;0.94;66.27
36138;BME280;67787;50.074;21.904;2024-02-15T02:07:20;99715.41;;;0.92;66.53
36138;BME280;67787;50.074;21.904;2024-02-15T02:09:48;99720.86;;;0.91;66.13
36138;BME280;67787;50.074;21.904;2024-02-15T02:12:16;99721.64;;;0.86;66.31
36138;BME280;67787;50.074;21.904;2024-02-15T02:14:45;99721.73;;;0.83;66.14
36138;BME280;67787;50.074;21.904;2024-02-15T02:17:14;99723.52;;;0.72;65.97
36138;BME280;67787;50.074;21.904;2024-02-15T02:19:42;99715.37;;;0.62;66.27
36138;BME280;67787;50.074;21.904;2024-02-15T02:22:11;99713.35;;;0.58;66.33
36138;BME280;67787;50.074;21.904;2024-02-15T02:25:02;99705.88;;;0.57;66.50
36138;BME280;67787;50.074;21.904;2024-02-15T02:27:32;99705.03;;;0.64;66.49
36138;BME280;67787;50.074;21.904;2024-02-15T02:30:00;99700.98;;;0.66;66.53
36138;BME280;67787;50.074;21.904;2024-02-15T02:32:28;99706.73;;;0.66;66.50
36138;BME280;67787;50.074;21.904;2024-02-15T02:34:56;99712.77;;;0.61;66.24
36138;BME280;67787;50.074;21.904;2024-02-15T02:37:25;99716.70;;;0.56;66.29
36138;BME280;67787;50.074;21.904;2024-02-15T02:39:53;99714.30;;;0.54;66.44
36138;BME280;67787;50.074;21.904;2024-02-15T02:42:21;99715.66;;;0.56;66.60
36138;BME280;67787;50.074;21.904;2024-02-15T02:44:48;99716.83;;;0.60;66.50
36138;BME280;67787;50.074;21.904;2024-02-15T02:47:16;99715.21;;;0.61;66.48
36138;BME280;67787;50.074;21.904;2024-02-15T02:49:44;99715.72;;;0.62;66.53
36138;BME280;67787;50.074;21.904;2024-02-15T02:52:12;99720.00;;;0.65;66.43
36138;BME280;67787;50.074;21.904;2024-02-15T02:54:40;99721.59;;;0.65;66.60
36138;BME280;67787;50.074;21.904;2024-02-15T02:57:08;99721.24;;;0.64;66.47
36138;BME280;67787;50.074;21.904;2024-02-15T02:59:36;99718.09;;;0.65;66.83
36138;BME280;67787;50.074;21.904;2024-02-15T03:02:07;99715.23;;;0.68;66.72
36138;BME280;67787;50.074;21.904;2024-02-15T03:04:36;99720.17;;;0.74;66.84
36138;BME280;67787;50.074;21.904;2024-02-15T03:07:06;99720.81;;;0.77;66.86
36138;BME280;67787;50.074;21.904;2024-02-15T03:09:34;99721.16;;;0.78;66.89
36138;BME280;67787;50.074;21.904;2024-02-15T03:12:04;99721.79;;;0.80;66.83
36138;BME280;67787;50.074;21.904;2024-02-15T03:14:32;99723.66;;;0.82;66.72
36138;BME280;67787;50.074;21.904;2024-02-15T03:17:03;99721.83;;;0.86;66.91
36138;BME280;67787;50.074;21.904;2024-02-15T03:19:31;99727.84;;;0.90;66.78
36138;BME280;67787;50.074;21.904;2024-02-15T03:21:59;99728.81;;;0.94;67.07
36138;BME280;67787;50.074;21.904;2024-02-15T03:24:28;99723.54;;;0.96;66.89
36138;BME280;67787;50.074;21.904;2024-02-15T03:26:55;99728.91;;;0.98;67.05
36138;BME280;67787;50.074;21.904;2024-02-15T03:29:23;99726.65;;;0.97;66.86
36138;BME280;67787;50.074;21.904;2024-02-15T03:31:52;99728.00;;;0.99;67.03
36138;BME280;67787;50.074;21.904;2024-02-15T03:34:22;99730.24;;;1.00;67.01
36138;BME280;67787;50.074;21.904;2024-02-15T03:36:51;99730.42;;;1.01;67.17
36138;BME280;67787;50.074;21.904;2024-02-15T03:39:21;99729.77;;;0.99;66.78
36138;BME280;67787;50.074;21.904;2024-02-15T03:41:51;99731.48;;;0.92;66.67
36138;BME280;67787;50.074;21.904;2024-02-15T03:44:23;99727.11;;;0.84;66.76
36138;BME280;67787;50.074;21.904;2024-02-15T03:46:53;99727.38;;;0.80;66.86
36138;BME280;67787;50.074;21.904;2024-02-15T03:49:25;99731.85;;;0.82;67.10
36138;BME280;67787;50.074;21.904;2024-02-15T03:51:53;99732.48;;;0.86;67.17
36138;BME280;67787;50.074;21.904;2024-02-15T03:54:22;99732.05;;;0.90;67.17
36138;BME280;67787;50.074;21.904;2024-02-15T03:56:51;99731.90;;;0.88;67.05
36138;BME280;67787;50.074;21.904;2024-02-15T03:59:21;99731.98;;;0.85;67.11
36138;BME280;67787;50.074;21.904;2024-02-15T04:01:54;99731.80;;;0.85;67.04
36138;BME280;67787;50.074;21.904;2024-02-15T04:04:22;99731.45;;;0.85;66.89
36138;BME280;67787;50.074;21.904;2024-02-15T04:06:50;99730.19;;;0.87;67.32
36138;BME280;67787;50.074;21.904;2024-02-15T04:09:22;99726.96;;;0.91;67.16
36138;BME280;67787;50.074;21.904;2024-02-15T04:11:49;99725.36;;;0.92;67.07
36138;BME280;67787;50.074;21.904;2024-02-15T04:14:21;99729.23;;;0.91;67.25
36138;BME280;67787;50.074;21.904;2024-02-15T04:16:49;99727.27;;;0.92;67.34
36138;BME280;67787;50.074;21.904;2024-02-15T04:19:17;99724.23;;;0.96;67.41
36138;BME280;67787;50.074;21.904;2024-02-15T04:21:47;99727.73;;;1.02;67.52
36138;BME280;67787;50.074;21.904;2024-02-15T04:24:15;99728.61;;;1.10;67.43
36138;BME280;67787;50.074;21.904;2024-02-15T04:26:43;99728.86;;;1.15;67.34
36138;BME280;67787;50.074;21.904;2024-02-15T04:29:13;99726.31;;;1.19;67.43
36138;BME280;67787;50.074;21.904;2024-02-15T04:31:42;99727.69;;;1.21;67.12
36138;BME280;67787;50.074;21.904;2024-02-15T04:34:10;99726.86;;;1.18;67.40
36138;BME280;67787;50.074;21.904;2024-02-15T04:36:39;99725.83;;;1.17;67.45
36138;BME280;67787;50.074;21.904;2024-02-15T04:39:06;99722.02;;;1.17;67.24
36138;BME280;67787;50.074;21.904;2024-02-15T04:41:34;99718.34;;;1.17;67.32
36138;BME280;67787;50.074;21.904;2024-02-15T04:44:02;99720.77;;;1.18;67.56
36138;BME280;67787;50.074;21.904;2024-02-15T04:46:31;99717.55;;;1.21;67.80
36138;BME280;67787;50.074;21.904;2024-02-15T04:48:59;99721.86;;;1.23;67.55
36138;BME280;67787;50.074;21.904;2024-02-15T04:51:29;99723.04;;;1.25;67.41
36138;BME280;67787;50.074;21.904;2024-02-15T04:53:57;99723.02;;;1.26;67.82
36138;BME280;67787;50.074;21.904;2024-02-15T04:56:25;99726.70;;;1.25;67.73
36138;BME280;67787;50.074;21.904;2024-02-15T04:58:53;99726.65;;;1.27;67.53
36138;BME280;67787;50.074;21.904;2024-02-15T05:01:21;99727.05;;;1.32;68.00
36138;BME280;67787;50.074;21.904;2024-02-15T05:03:50;99727.08;;;1.39;67.92
36138;BME280;67787;50.074;21.904;2024-02-15T05:06:18;99725.57;;;1.43;68.01
36138;BME280;67787;50.074;21.904;2024-02-15T05:08:47;99723.89;;;1.47;67.99
36138;BME280;67787;50.074;21.904;2024-02-15T05:11:15;99725.88;;;1.52;67.87
36138;BME280;67787;50.074;21.904;2024-02-15T05:13:46;99725.27;;;1.56;67.72
36138;BME280;67787;50.074;21.904;2024-02-15T05:16:14;99729.98;;;1.56;67.83
36138;BME280;67787;50.074;21.904;2024-02-15T05:18:41;99728.77;;;1.56;67.95
36138;BME280;67787;50.074;21.904;2024-02-15T05:21:10;99734.83;;;1.58;68.10
36138;BME280;67787;50.074;21.904;2024-02-15T05:23:38;99733.69;;;1.62;68.15
36138;BME280;67787;50.074;21.904;2024-02-15T05:26:11;99732.88;;;1.66;68.04
36138;BME280;67787;50.074;21.904;2024-02-15T05:28:40;99728.04;;;1.70;68.22
36138;BME280;67787;50.074;21.904;2024-02-15T05:31:09;99722.50;;;1.75;68.15
36138;BME280;67787;50.074;21.904;2024-02-15T05:33:38;99724.30;;;1.80;68.25
36138;BME280;67787;50.074;21.904;2024-02-15T05:36:12;99721.08;;;1.83;68.43
36138;BME280;67787;50.074;21.904;2024-02-15T05:38:41;99722.52;;;1.88;68.54
36138;BME280;67787;50.074;21.904;2024-02-15T05:41:09;99724.46;;;1.94;68.00
36138;BME280;67787;50.074;21.904;2024-02-15T05:43:38;99726.24;;;1.99;68.13
36138;BME280;67787;50.074;21.904;2024-02-15T05:46:07;99729.07;;;2.05;68.23
36138;BME280;67787;50.074;21.904;2024-02-15T05:48:35;99729.17;;;2.07;68.23
36138;BME280;67787;50.074;21.904;2024-02-15T05:51:06;99727.91;;;2.08;68.23
36138;BME280;67787;50.074;21.904;2024-02-15T05:53:35;99727.20;;;2.08;68.12
36138;BME280;67787;50.074;21.904;2024-02-15T05:56:07;99734.69;;;2.11;68.22
36138;BME280;67787;50.074;21.904;2024-02-15T05:58:36;99739.11;;;2.15;68.24
36138;BME280;67787;50.074;21.904;2024-02-15T06:01:04;99743.42;;;2.17;68.08
36138;BME280;67787;50.074;21.904;2024-02-15T06:03:35;99741.83;;;2.18;68.19
36138;BME280;67787;50.074;21.904;2024-02-15T06:06:06;99744.23;;;2.20;68.23
36138;BME280;67787;50.074;21.904;2024-02-15T06:08:35;99749.95;;;2.22;68.09
36138;BME280;67787;50.074;21.904;2024-02-15T06:11:04;99750.97;;;2.23;68.18
36138;BME280;67787;50.074;21.904;2024-02-15T06:13:33;99750.54;;;2.26;68.52
36138;BME280;67787;50.074;21.904;2024-02-15T06:16:00;99754.27;;;2.30;68.27
36138;BME280;67787;50.074;21.904;2024-02-15T06:18:29;99757.83;;;2.35;68.49
36138;BME280;67787;50.074;21.904;2024-02-15T06:20:59;99761.37;;;2.40;68.35
36138;BME280;67787;50.074;21.904;2024-02-15T06:23:28;99759.07;;;2.41;68.21
36138;BME280;67787;50.074;21.904;2024-02-15T06:25:56;99757.23;;;2.44;68.45
36138;BME280;67787;50.074;21.904;2024-02-15T06:28:26;99755.04;;;2.47;68.37
36138;BME280;67787;50.074;21.904;2024-02-15T06:31:13;99752.09;;;2.51;68.73
36138;BME280;67787;50.074;21.904;2024-02-15T06:34:00;99757.27;;;2.55;68.76
36138;BME280;67787;50.074;21.904;2024-02-15T06:36:49;99757.88;;;2.59;68.35
36138;BME280;67787;50.074;21.904;2024-02-15T06:39:36;99759.02;;;2.61;68.68
36138;BME280;67787;50.074;21.904;2024-02-15T06:42:17;99761.27;;;2.68;68.53
36138;BME280;67787;50.074;21.904;2024-02-15T06:44:49;99767.45;;;2.72;68.54
36138;BME280;67787;50.074;21.904;2024-02-15T06:47:17;99766.17;;;2.74;68.43
36138;BME280;67787;50.074;21.904;2024-02-15T06:49:46;99775.20;;;2.77;68.65
36138;BME280;67787;50.074;21.904;2024-02-15T06:52:17;99773.38;;;2.80;68.52
36138;BME280;67787;50.074;21.904;2024-02-15T06:54:45;99776.64;;;2.82;68.75
36138;BME280;67787;50.074;21.904;2024-02-15T06:57:13;99777.92;;;2.86;68.93
36138;BME280;67787;50.074;21.904;2024-02-15T06:59:46;99779.36;;;2.90;68.68
36138;BME280;67787;50.074;21.904;2024-02-15T07:02:14;99777.40;;;2.92;68.55
36138;BME280;67787;50.074;21.904;2024-02-15T07:04:44;99778.54;;;2.95;68.72
36138;BME280;67787;50.074;21.904;2024-02-15T07:07:12;99780.69;;;2.99;68.72
36138;BME280;67787;50.074;21.904;2024-02-15T07:09:42;99783.66;;;3.05;68.67
36138;BME280;67787;50.074;21.904;2024-02-15T07:12:10;99781.36;;;3.11;68.62
36138;BME280;67787;50.074;21.904;2024-02-15T07:14:38;99781.02;;;3.17;68.78
36138;BME280;67787;50.074;21.904;2024-02-15T07:17:06;99783.14;;;3.23;68.87
36138;BME280;67787;50.074;21.904;2024-02-15T07:19:34;99787.16;;;3.28;68.77
36138;BME280;67787;50.074;21.904;2024-02-15T07:22:04;99785.08;;;3.28;68.85
36138;BME280;67787;50.074;21.904;2024-02-15T07:24:32;99783.52;;;3.26;68.59
36138;BME280;67787;50.074;21.904;2024-02-15T07:27:00;99777.30;;;3.29;68.80
36138;BME280;67787;50.074;21.904;2024-02-15T07:29:27;99772.77;;;3.35;68.80
36138;BME280;67787;50.074;21.904;2024-02-15T07:31:55;99774.36;;;3.39;68.88
36138;BME280;67787;50.074;21.904;2024-02-15T07:34:23;99772.69;;;3.43;68.80
36138;BME280;67787;50.074;21.904;2024-02-15T07:36:51;99773.80;;;3.47;68.89
36138;BME280;67787;50.074;21.904;2024-02-15T07:39:19;99773.85;;;3.50;68.92
36138;BME280;67787;50.074;21.904;2024-02-15T07:41:53;99779.16;;;3.54;68.78
36138;BME280;67787;50.074;21.904;2024-02-15T07:44:22;99779.40;;;3.58;68.99
36138;BME280;67787;50.074;21.904;2024-02-15T07:46:50;99778.20;;;3.62;68.77
36138;BME280;67787;50.074;21.904;2024-02-15T07:49:18;99778.78;;;3.66;68.74
36138;BME280;67787;50.074;21.904;2024-02-15T07:51:46;99783.25;;;3.69;68.80
36138;BME280;67787;50.074;21.904;2024-02-15T07:54:21;99777.98;;;3.74;68.86
36138;BME280;67787;50.074;21.904;2024-02-15T07:56:49;99781.89;;;3.78;68.70
36138;BME280;67787;50.074;21.904;2024-02-15T07:59:17;99778.77;;;3.82;68.80
36138;BME280;67787;50.074;21.904;2024-02-15T08:01:45;99777.11;;;3.85;68.90
36138;BME280;67787;50.074;21.904;2024-02-15T08:04:18;99775.71;;;3.90;68.86
36138;BME280;67787;50.074;21.904;2024-02-15T08:06:47;99778.59;;;3.93;68.82
36138;BME280;67787;50.074;21.904;2024-02-15T08:09:16;99777.02;;;3.98;68.93
36138;BME280;67787;50.074;21.904;2024-02-15T08:11:45;99777.79;;;4.01;69.20
36138;BME280;67787;50.074;21.904;2024-02-15T08:14:13;99776.36;;;4.07;68.87
36138;BME280;67787;50.074;21.904;2024-02-15T08:16:41;99777.71;;;4.14;69.06
36138;BME280;67787;50.074;21.904;2024-02-15T08:19:09;99776.63;;;4.20;68.95
36138;BME280;67787;50.074;21.904;2024-02-15T08:21:39;99775.42;;;4.25;68.99
36138;BME280;67787;50.074;21.904;2024-02-15T08:24:09;99780.70;;;4.29;69.04
36138;BME280;67787;50.074;21.904;2024-02-15T08:26:38;99781.95;;;4.33;69.02
36138;BME280;67787;50.074;21.904;2024-02-15T08:29:07;99785.57;;;4.36;68.96
36138;BME280;67787;50.074;21.904;2024-02-15T08:31:35;99782.09;;;4.39;68.99
36138;BME280;67787;50.074;21.904;2024-02-15T08:34:04;99784.00;;;4.45;69.11
36138;BME280;67787;50.074;21.904;2024-02-15T08:36:38;99788.38;;;4.50;69.04
36138;BME280;67787;50.074;21.904;2024-02-15T08:39:07;99786.88;;;4.52;69.18
36138;BME280;67787;50.074;21.904;2024-02-15T08:41:39;99791.86;;;4.56;68.94
36138;BME280;67787;50.074;21.904;2024-02-15T08:44:08;99794.41;;;4.58;68.96
36138;BME280;67787;50.074;21.904;2024-02-15T08:46:39;99793.73;;;4.63;69.06
36138;BME280;67787;50.074;21.904;2024-02-15T08:49:07;99792.56;;;4.66;69.11
36138;BME280;67787;50.074;21.904;2024-02-15T08:51:35;99789.20;;;4.71;69.10
36138;BME280;67787;50.074;21.904;2024-02-15T08:54:03;99785.90;;;4.74;69.01
36138;BME280;67787;50.074;21.904;2024-02-15T08:56:31;99787.90;;;4.78;68.99
36138;BME280;67787;50.074;21.904;2024-02-15T08:59:01;99787.41;;;4.82;69.05
36138;BME280;67787;50.074;21.904;2024-02-15T09:01:31;99788.80;;;4.87;69.06
36138;BME280;67787;50.074;21.904;2024-02-15T09:03:59;99796.35;;;4.92;69.08
36138;BME280;67787;50.074;21.904;2024-02-15T09:06:27;99794.13;;;4.95;69.04
36138;BME280;67787;50.074;21.904;2024-02-15T09:08:55;99796.89;;;4.96;69.01
36138;BME280;67787;50.074;21.904;2024-02-15T09:11:29;99794.98;;;5.00;69.05
36138;BME280;67787;50.074;21.904;2024-02-15T09:13:57;99793.06;;;5.04;69.04
36138;BME280;67787;50.074;21.904;2024-02-15T09:16:25;99794.55;;;5.07;69.12
36138;BME280;67787;50.074;21.904;2024-02-15T09:18:53;99797.55;;;5.11;69.17
36138;BME280;67787;50.074;21.904;2024-02-15T09:21:21;99800.05;;;5.15;69.05
36138;BME280;67787;50.074;21.904;2024-02-15T09:23:49;99802.55;;;5.18;69.13
36138;BME280;67787;50.074;21.904;2024-02-15T09:26:17;99803.44;;;5.23;69.03
36138;BME280;67787;50.074;21.904;2024-02-15T09:28:45;99807.13;;;5.23;69.00
36138;BME280;67787;50.074;21.904;2024-02-15T09:31:13;99807.31;;;5.23;68.98
36138;BME280;67787;50.074;21.904;2024-02-15T09:33:41;99808.44;;;5.25;69.04
36138;BME280;67787;50.074;21.904;2024-02-15T09:36:09;99807.68;;;5.27;69.06
36138;BME280;67787;50.074;21.904;2024-02-15T09:38:37;99806.24;;;5.28;68.98
36138;BME280;67787;50.074;21.904;2024-02-15T09:41:05;99809.24;;;5.32;69.03
36138;BME280;67787;50.074;21.904;2024-02-15T09:43:38;99805.22;;;5.36;69.07
36138;BME280;67787;50.074;21.904;2024-02-15T09:46:05;99804.73;;;5.39;69.01
36138;BME280;67787;50.074;21.904;2024-02-15T09:48:34;99801.41;;;5.43;69.01
36138;BME280;67787;50.074;21.904;2024-02-15T09:51:03;99801.23;;;5.48;69.07
36138;BME280;67787;50.074;21.904;2024-02-15T09:53:31;99797.69;;;5.53;69.09
36138;BME280;67787;50.074;21.904;2024-02-15T09:56:00;99792.73;;;5.58;69.20
36138;BME280;67787;50.074;21.904;2024-02-15T09:58:32;99791.98;;;5.63;69.20
36138;BME280;67787;50.074;21.904;2024-02-15T10:01:04;99792.88;;;5.68;69.14
36138;BME280;67787;50.074;21.904;2024-02-15T10:03:38;99796.39;;;5.72;69.11
36138;BME280;67787;50.074;21.904;2024-02-15T10:06:09;99795.70;;;5.76;69.01
36138;BME280;67787;50.074;21.904;2024-02-15T10:08:37;99790.77;;;5.80;69.07
36138;BME280;67787;50.074;21.904;2024-02-15T10:11:09;99791.25;;;5.86;69.26
36138;BME280;67787;50.074;21.904;2024-02-15T10:13:38;99789.88;;;5.89;69.12
36138;BME280;67787;50.074;21.904;2024-02-15T10:16:17;99788.66;;;5.93;69.10
36138;BME280;67787;50.074;21.904;2024-02-15T10:18:46;99788.02;;;5.95;68.98
36138;BME280;67787;50.074;21.904;2024-02-15T10:21:24;99784.91;;;5.99;68.99
36138;BME280;67787;50.074;21.904;2024-02-15T10:26:33;99786.48;;;6.08;69.15
36138;BME280;67787;50.074;21.904;2024-02-15T10:29:10;99783.43;;;6.14;69.06
36138;BME280;67787;50.074;21.904;2024-02-15T10:31:40;99781.30;;;6.22;69.16
36138;BME280;67787;50.074;21.904;2024-02-15T10:34:20;99781.45;;;6.31;69.24
36138;BME280;67787;50.074;21.904;2024-02-15T10:36:49;99780.87;;;6.36;69.33
36138;BME280;67787;50.074;21.904;2024-02-15T10:39:19;99784.19;;;6.41;69.22
36138;BME280;67787;50.074;21.904;2024-02-15T10:41:52;99783.61;;;6.46;69.31
36138;BME280;67787;50.074;21.904;2024-02-15T10:44:22;99782.23;;;6.50;69.24
36138;BME280;67787;50.074;21.904;2024-02-15T10:46:52;99780.05;;;6.54;69.13
36138;BME280;67787;50.074;21.904;2024-02-15T10:49:24;99782.71;;;6.58;69.05
36138;BME280;67787;50.074;21.904;2024-02-15T10:51:57;99782.20;;;6.62;69.13
36138;BME280;67787;50.074;21.904;2024-02-15T10:54:43;99785.55;;;6.66;69.32
36138;BME280;67787;50.074;21.904;2024-02-15T10:57:21;99774.65;;;6.69;69.18
36138;BME280;67787;50.074;21.904;2024-02-15T10:59:56;99775.88;;;6.74;69.29
36138;BME280;67787;50.074;21.904;2024-02-15T11:03:35;99774.83;;;6.81;69.35
36138;BME280;67787;50.074;21.904;2024-02-15T11:06:05;99778.28;;;6.83;69.15
36138;BME280;67787;50.074;21.904;2024-02-15T11:08:35;99778.70;;;6.85;69.11
36138;BME280;67787;50.074;21.904;2024-02-15T11:11:04;99778.23;;;6.88;69.16
36138;BME280;67787;50.074;21.904;2024-02-15T11:13:32;99778.16;;;6.90;69.26
36138;BME280;67787;50.074;21.904;2024-02-15T11:16:01;99776.58;;;6.93;69.33
36138;BME280;67787;50.074;21.904;2024-02-15T11:18:47;99775.92;;;6.96;69.26
36138;BME280;67787;50.074;21.904;2024-02-15T11:21:18;99768.73;;;6.99;69.26
36138;BME280;67787;50.074;21.904;2024-02-15T11:23:46;99772.15;;;7.01;69.14
36138;BME280;67787;50.074;21.904;2024-02-15T11:26:43;99768.98;;;7.05;69.24
36138;BME280;67787;50.074;21.904;2024-02-15T11:29:53;99764.38;;;7.09;69.20
36138;BME280;67787;50.074;21.904;2024-02-15T11:32:45;99762.71;;;7.14;69.02
36138;BME280;67787;50.074;21.904;2024-02-15T11:35:25;99764.10;;;7.19;69.16
36138;BME280;67787;50.074;21.904;2024-02-15T11:37:55;99762.84;;;7.23;69.09
36138;BME280;67787;50.074;21.904;2024-02-15T11:43:00;99761.05;;;7.34;69.12
36138;BME280;67787;50.074;21.904;2024-02-15T11:45:29;99758.08;;;7.38;69.26
36138;BME280;67787;50.074;21.904;2024-02-15T11:48:07;99759.14;;;7.41;69.32
36138;BME280;67787;50.074;21.904;2024-02-15T11:50:40;99750.79;;;7.42;69.08
36138;BME280;67787;50.074;21.904;2024-02-15T11:53:08;99745.83;;;7.46;69.22
36138;BME280;67787;50.074;21.904;2024-02-15T11:55:40;99742.82;;;7.50;69.14
36138;BME280;67787;50.074;21.904;2024-02-15T11:58:09;99742.27;;;7.55;69.30
36138;BME280;67787;50.074;21.904;2024-02-15T12:00:39;99735.42;;;7.57;69.21
36138;BME280;67787;50.074;21.904;2024-02-15T12:03:26;99735.61;;;7.61;69.29
36138;BME280;67787;50.074;21.904;2024-02-15T12:06:30;99734.77;;;7.64;69.15
36138;BME280;67787;50.074;21.904;2024-02-15T12:09:18;99731.60;;;7.67;68.99
36138;BME280;67787;50.074;21.904;2024-02-15T12:12:06;99730.90;;;7.67;69.09
36138;BME280;67787;50.074;21.904;2024-02-15T12:15:00;99731.33;;;7.62;69.01
36138;BME280;67787;50.074;21.904;2024-02-15T12:17:47;99729.05;;;7.54;68.99
36138;BME280;67787;50.074;21.904;2024-02-15T12:20:35;99728.60;;;7.49;69.12
36138;BME280;67787;50.074;21.904;2024-02-15T12:23:03;99730.16;;;7.46;68.88
36138;BME280;67787;50.074;21.904;2024-02-15T12:25:35;99727.55;;;7.38;68.83
36138;BME280;67787;50.074;21.904;2024-02-15T12:28:04;99725.77;;;7.31;68.79
36138;BME280;67787;50.074;21.904;2024-02-15T12:30:34;99721.52;;;7.32;68.89
36138;BME280;67787;50.074;21.904;2024-02-15T12:33:09;99722.13;;;7.33;68.96
36138;BME280;67787;50.074;21.904;2024-02-15T12:35:39;99715.79;;;7.33;68.99
36138;BME280;67787;50.074;21.904;2024-02-15T12:38:07;99720.56;;;7.33;69.02
36138;BME280;67787;50.074;21.904;2024-02-15T12:40:38;99720.05;;;7.32;68.91
36138;BME280;67787;50.074;21.904;2024-02-15T12:43:12;99718.26;;;7.29;68.70
36138;BME280;67787;50.074;21.904;2024-02-15T12:45:41;99715.05;;;7.26;68.86
36138;BME280;67787;50.074;21.904;2024-02-15T12:48:09;99713.34;;;7.25;68.99
36138;BME280;67787;50.074;21.904;2024-02-15T12:50:39;99712.91;;;7.27;69.00
36138;BME280;67787;50.074;21.904;2024-02-15T12:53:07;99708.27;;;7.28;68.80
36138;BME280;67787;50.074;21.904;2024-02-15T12:55:37;99708.59;;;7.29;68.96
36138;BME280;67787;50.074;21.904;2024-02-15T12:58:15;99706.21;;;7.30;68.82
36138;BME280;67787;50.074;21.904;2024-02-15T13:00:44;99700.48;;;7.28;68.93
36138;BME280;67787;50.074;21.904;2024-02-15T13:03:12;99702.48;;;7.27;69.00
36138;BME280;67787;50.074;21.904;2024-02-15T13:05:43;99701.39;;;7.28;68.70
36138;BME280;67787;50.074;21.904;2024-02-15T13:08:12;99700.79;;;7.29;68.84
36138;BME280;67787;50.074;21.904;2024-02-15T13:10:43;99696.66;;;7.31;69.01
36138;BME280;67787;50.074;21.904;2024-02-15T13:13:12;99699.88;;;7.34;68.84
36138;BME280;67787;50.074;21.904;2024-02-15T13:15:44;99695.48;;;7.34;68.92
36138;BME280;67787;50.074;21.904;2024-02-15T13:18:13;99693.96;;;7.35;68.85
36138;BME280;67787;50.074;21.904;2024-02-15T13:20:43;99695.73;;;7.36;68.70
36138;BME280;67787;50.074;21.904;2024-02-15T13:23:11;99696.56;;;7.33;68.71